sensor_id;sensor_type;location;lat;lon;timestamp;P1;durP1;ratioP1;P2;durP2;ratioP2
21233;SDS011;10774;42.178;26.578;2022-12-18T00:00:28;48.13;;;31.70;;
21233;SDS011;10774;42.178;26.578;2022-12-18T00:02:55;65.38;;;38.38;;
21233;SDS011;10774;42.178;26.578;2022-12-18T00:05:20;53.80;;;33.92;;
21233;SDS011;10774;42.178;26.578;2022-12-18T00:07:46;69.32;;;43.20;;
21233;SDS011;10774;42.178;26.578;2022-12-18T00:10:11;39.25;;;26.65;;
21233;SDS011;10774;42.178;26.578;2022-12-18T00:12:37;100.90;;;59.40;;
21233;SDS011;10774;42.178;26.578;2022-12-18T00:15:02;59.13;;;35.53;;
21233;SDS011;10774;42.178;26.578;2022-12-18T00:17:28;44.90;;;28.08;;
21233;SDS011;10774;42.178;26.578;2022-12-18T00:19:53;43.15;;;28.15;;
21233;SDS011;10774;42.178;26.578;2022-12-18T00:22:19;45.80;;;30.05;;
21233;SDS011;10774;42.178;26.578;2022-12-18T00:24:44;42.40;;;29.00;;
21233;SDS011;10774;42.178;26.578;2022-12-18T00:27:10;50.10;;;30.23;;
21233;SDS011;10774;42.178;26.578;2022-12-18T00:29:35;42.40;;;27.00;;
21233;SDS011;10774;42.178;26.578;2022-12-18T00:32:00;41.17;;;27.75;;
21233;SDS011;10774;42.178;26.578;2022-12-18T00:34:26;44.40;;;28.38;;
21233;SDS011;10774;42.178;26.578;2022-12-18T00:36:51;42.42;;;27.00;;
21233;SDS011;10774;42.178;26.578;2022-12-18T00:39:16;46.15;;;30.38;;
21233;SDS011;10774;42.178;26.578;2022-12-18T00:41:42;39.20;;;26.83;;
21233;SDS011;10774;42.178;26.578;2022-12-18T00:44:26;46.35;;;29.27;;
21233;SDS011;10774;42.178;26.578;2022-12-18T00:46:51;48.95;;;30.95;;
21233;SDS011;10774;42.178;26.578;2022-12-18T00:49:17;51.47;;;30.63;;
21233;SDS011;10774;42.178;26.578;2022-12-18T00:51:44;48.53;;;30.92;;
21233;SDS011;10774;42.178;26.578;2022-12-18T00:54:09;46.65;;;29.48;;
21233;SDS011;10774;42.178;26.578;2022-12-18T00:56:36;50.78;;;28.88;;
21233;SDS011;10774;42.178;26.578;2022-12-18T00:59:03;43.78;;;28.10;;
21233;SDS011;10774;42.178;26.578;2022-12-18T01:01:28;41.63;;;27.40;;
21233;SDS011;10774;42.178;26.578;2022-12-18T01:03:54;41.20;;;27.27;;
21233;SDS011;10774;42.178;26.578;2022-12-18T01:06:19;42.63;;;26.90;;
21233;SDS011;10774;42.178;26.578;2022-12-18T01:08:45;43.90;;;27.58;;
21233;SDS011;10774;42.178;26.578;2022-12-18T01:11:12;49.17;;;31.60;;
21233;SDS011;10774;42.178;26.578;2022-12-18T01:13:39;49.83;;;30.77;;
21233;SDS011;10774;42.178;26.578;2022-12-18T01:16:05;46.60;;;31.27;;
21233;SDS011;10774;42.178;26.578;2022-12-18T01:18:31;43.08;;;30.63;;
21233;SDS011;10774;42.178;26.578;2022-12-18T01:20:57;42.42;;;29.13;;
21233;SDS011;10774;42.178;26.578;2022-12-18T01:23:22;45.70;;;29.80;;
21233;SDS011;10774;42.178;26.578;2022-12-18T01:25:47;47.72;;;29.60;;
21233;SDS011;10774;42.178;26.578;2022-12-18T01:28:13;38.17;;;26.17;;
21233;SDS011;10774;42.178;26.578;2022-12-18T01:30:38;39.90;;;25.67;;
21233;SDS011;10774;42.178;26.578;2022-12-18T01:33:04;43.17;;;26.75;;
21233;SDS011;10774;42.178;26.578;2022-12-18T01:35:30;45.28;;;30.27;;
21233;SDS011;10774;42.178;26.578;2022-12-18T01:37:56;54.17;;;34.35;;
21233;SDS011;10774;42.178;26.578;2022-12-18T01:40:22;53.67;;;35.38;;
21233;SDS011;10774;42.178;26.578;2022-12-18T01:42:51;51.58;;;32.20;;
21233;SDS011;10774;42.178;26.578;2022-12-18T01:45:24;47.40;;;31.63;;
21233;SDS011;10774;42.178;26.578;2022-12-18T01:47:53;45.83;;;30.35;;
21233;SDS011;10774;42.178;26.578;2022-12-18T01:50:22;47.63;;;30.27;;
21233;SDS011;10774;42.178;26.578;2022-12-18T01:52:50;43.05;;;28.40;;
21233;SDS011;10774;42.178;26.578;2022-12-18T01:55:19;42.08;;;26.05;;
21233;SDS011;10774;42.178;26.578;2022-12-18T01:57:48;39.40;;;25.92;;
21233;SDS011;10774;42.178;26.578;2022-12-18T02:00:18;39.45;;;27.13;;
21233;SDS011;10774;42.178;26.578;2022-12-18T02:02:45;42.55;;;26.95;;
21233;SDS011;10774;42.178;26.578;2022-12-18T02:05:12;45.15;;;27.25;;
21233;SDS011;10774;42.178;26.578;2022-12-18T02:10:18;52.45;;;31.70;;
21233;SDS011;10774;42.178;26.578;2022-12-18T02:12:52;45.55;;;31.20;;
21233;SDS011;10774;42.178;26.578;2022-12-18T02:15:36;44.67;;;29.08;;
21233;SDS011;10774;42.178;26.578;2022-12-18T02:18:10;39.33;;;25.05;;
21233;SDS011;10774;42.178;26.578;2022-12-18T02:20:45;39.60;;;26.15;;
21233;SDS011;10774;42.178;26.578;2022-12-18T02:28:34;38.92;;;26.35;;
21233;SDS011;10774;42.178;26.578;2022-12-18T02:31:06;48.55;;;29.67;;
21233;SDS011;10774;42.178;26.578;2022-12-18T02:33:35;43.33;;;27.77;;
21233;SDS011;10774;42.178;26.578;2022-12-18T02:36:03;41.97;;;26.98;;
21233;SDS011;10774;42.178;26.578;2022-12-18T02:38:30;42.20;;;27.23;;
21233;SDS011;10774;42.178;26.578;2022-12-18T02:40:57;42.00;;;26.98;;
21233;SDS011;10774;42.178;26.578;2022-12-18T02:43:23;48.95;;;29.17;;
21233;SDS011;10774;42.178;26.578;2022-12-18T02:45:58;42.47;;;27.85;;
21233;SDS011;10774;42.178;26.578;2022-12-18T02:48:27;37.97;;;26.05;;
21233;SDS011;10774;42.178;26.578;2022-12-18T02:53:29;41.22;;;26.10;;
21233;SDS011;10774;42.178;26.578;2022-12-18T03:03:54;40.05;;;24.52;;
21233;SDS011;10774;42.178;26.578;2022-12-18T03:06:32;37.95;;;24.77;;
21233;SDS011;10774;42.178;26.578;2022-12-18T03:09:21;36.15;;;25.08;;
21233;SDS011;10774;42.178;26.578;2022-12-18T03:11:55;38.65;;;24.98;;
21233;SDS011;10774;42.178;26.578;2022-12-18T03:14:43;37.08;;;25.83;;
21233;SDS011;10774;42.178;26.578;2022-12-18T03:17:13;38.15;;;26.00;;
21233;SDS011;10774;42.178;26.578;2022-12-18T03:19:44;35.83;;;23.90;;
21233;SDS011;10774;42.178;26.578;2022-12-18T03:22:11;35.47;;;25.05;;
21233;SDS011;10774;42.178;26.578;2022-12-18T03:24:38;45.58;;;28.83;;
21233;SDS011;10774;42.178;26.578;2022-12-18T03:27:05;56.55;;;35.03;;
21233;SDS011;10774;42.178;26.578;2022-12-18T03:29:39;49.97;;;31.27;;
21233;SDS011;10774;42.178;26.578;2022-12-18T03:32:12;36.28;;;26.23;;
21233;SDS011;10774;42.178;26.578;2022-12-18T03:34:44;36.03;;;22.90;;
21233;SDS011;10774;42.178;26.578;2022-12-18T03:37:13;35.72;;;23.35;;
21233;SDS011;10774;42.178;26.578;2022-12-18T03:39:38;36.63;;;23.77;;
21233;SDS011;10774;42.178;26.578;2022-12-18T03:44:39;37.70;;;27.13;;
21233;SDS011;10774;42.178;26.578;2022-12-18T03:49:47;34.53;;;25.10;;
21233;SDS011;10774;42.178;26.578;2022-12-18T03:55:25;36.47;;;26.02;;
21233;SDS011;10774;42.178;26.578;2022-12-18T03:57:54;49.33;;;31.85;;
21233;SDS011;10774;42.178;26.578;2022-12-18T04:00:22;45.85;;;30.90;;
21233;SDS011;10774;42.178;26.578;2022-12-18T04:02:49;54.50;;;35.03;;
21233;SDS011;10774;42.178;26.578;2022-12-18T04:05:18;48.85;;;30.90;;
21233;SDS011;10774;42.178;26.578;2022-12-18T04:07:46;64.28;;;40.67;;
21233;SDS011;10774;42.178;26.578;2022-12-18T04:10:13;69.00;;;45.05;;
21233;SDS011;10774;42.178;26.578;2022-12-18T04:12:40;46.88;;;31.05;;
21233;SDS011;10774;42.178;26.578;2022-12-18T04:15:07;47.72;;;30.13;;
21233;SDS011;10774;42.178;26.578;2022-12-18T04:17:33;50.28;;;32.78;;
21233;SDS011;10774;42.178;26.578;2022-12-18T04:19:58;47.40;;;31.38;;
21233;SDS011;10774;42.178;26.578;2022-12-18T04:22:23;57.40;;;40.08;;
21233;SDS011;10774;42.178;26.578;2022-12-18T04:24:49;56.58;;;38.58;;
21233;SDS011;10774;42.178;26.578;2022-12-18T04:27:14;57.22;;;32.67;;
21233;SDS011;10774;42.178;26.578;2022-12-18T04:29:40;47.00;;;31.23;;
21233;SDS011;10774;42.178;26.578;2022-12-18T04:32:05;52.20;;;32.88;;
21233;SDS011;10774;42.178;26.578;2022-12-18T04:34:31;56.55;;;35.88;;
21233;SDS011;10774;42.178;26.578;2022-12-18T04:36:57;60.10;;;36.50;;
21233;SDS011;10774;42.178;26.578;2022-12-18T04:39:22;63.35;;;40.80;;
21233;SDS011;10774;42.178;26.578;2022-12-18T04:41:48;57.20;;;34.10;;
21233;SDS011;10774;42.178;26.578;2022-12-18T04:44:13;52.80;;;31.58;;
21233;SDS011;10774;42.178;26.578;2022-12-18T04:46:39;55.65;;;34.67;;
21233;SDS011;10774;42.178;26.578;2022-12-18T04:49:04;60.58;;;39.42;;
21233;SDS011;10774;42.178;26.578;2022-12-18T04:51:30;51.10;;;31.95;;
21233;SDS011;10774;42.178;26.578;2022-12-18T04:53:55;59.70;;;34.55;;
21233;SDS011;10774;42.178;26.578;2022-12-18T04:56:21;51.45;;;31.75;;
21233;SDS011;10774;42.178;26.578;2022-12-18T04:58:46;52.90;;;32.85;;
21233;SDS011;10774;42.178;26.578;2022-12-18T05:01:12;51.67;;;31.52;;
21233;SDS011;10774;42.178;26.578;2022-12-18T05:03:38;44.65;;;29.05;;
21233;SDS011;10774;42.178;26.578;2022-12-18T05:06:04;46.80;;;31.27;;
21233;SDS011;10774;42.178;26.578;2022-12-18T05:08:30;48.88;;;31.00;;
21233;SDS011;10774;42.178;26.578;2022-12-18T05:11:00;45.13;;;31.20;;
21233;SDS011;10774;42.178;26.578;2022-12-18T05:13:27;45.78;;;30.63;;
21233;SDS011;10774;42.178;26.578;2022-12-18T05:15:53;52.42;;;35.17;;
21233;SDS011;10774;42.178;26.578;2022-12-18T05:18:19;53.35;;;37.67;;
21233;SDS011;10774;42.178;26.578;2022-12-18T05:20:44;55.22;;;38.72;;
21233;SDS011;10774;42.178;26.578;2022-12-18T05:23:10;59.33;;;41.30;;
21233;SDS011;10774;42.178;26.578;2022-12-18T05:25:35;55.38;;;39.92;;
21233;SDS011;10774;42.178;26.578;2022-12-18T05:28:00;58.20;;;40.55;;
21233;SDS011;10774;42.178;26.578;2022-12-18T05:30:26;56.15;;;37.17;;
21233;SDS011;10774;42.178;26.578;2022-12-18T05:32:52;55.58;;;38.03;;
21233;SDS011;10774;42.178;26.578;2022-12-18T05:35:18;54.53;;;35.80;;
21233;SDS011;10774;42.178;26.578;2022-12-18T05:37:43;50.33;;;33.88;;
21233;SDS011;10774;42.178;26.578;2022-12-18T05:40:09;57.05;;;39.88;;
21233;SDS011;10774;42.178;26.578;2022-12-18T05:42:35;69.85;;;45.15;;
21233;SDS011;10774;42.178;26.578;2022-12-18T05:45:01;50.63;;;35.42;;
21233;SDS011;10774;42.178;26.578;2022-12-18T05:47:27;45.35;;;32.00;;
21233;SDS011;10774;42.178;26.578;2022-12-18T05:49:53;37.80;;;26.95;;
21233;SDS011;10774;42.178;26.578;2022-12-18T05:52:19;28.63;;;22.58;;
21233;SDS011;10774;42.178;26.578;2022-12-18T05:54:44;24.88;;;20.17;;
21233;SDS011;10774;42.178;26.578;2022-12-18T05:57:10;30.77;;;22.90;;
21233;SDS011;10774;42.178;26.578;2022-12-18T05:59:35;33.05;;;22.75;;
21233;SDS011;10774;42.178;26.578;2022-12-18T06:02:00;25.77;;;19.70;;
21233;SDS011;10774;42.178;26.578;2022-12-18T06:04:27;22.90;;;17.23;;
21233;SDS011;10774;42.178;26.578;2022-12-18T06:06:53;24.27;;;17.45;;
21233;SDS011;10774;42.178;26.578;2022-12-18T06:09:19;31.35;;;22.45;;
21233;SDS011;10774;42.178;26.578;2022-12-18T06:11:44;29.98;;;26.02;;
21233;SDS011;10774;42.178;26.578;2022-12-18T06:14:09;36.08;;;30.98;;
21233;SDS011;10774;42.178;26.578;2022-12-18T06:16:35;39.15;;;30.50;;
21233;SDS011;10774;42.178;26.578;2022-12-18T06:19:01;38.38;;;28.10;;
21233;SDS011;10774;42.178;26.578;2022-12-18T06:21:29;35.75;;;28.77;;
21233;SDS011;10774;42.178;26.578;2022-12-18T06:23:56;33.85;;;25.65;;
21233;SDS011;10774;42.178;26.578;2022-12-18T06:26:21;27.83;;;22.48;;
21233;SDS011;10774;42.178;26.578;2022-12-18T06:28:47;26.33;;;20.42;;
21233;SDS011;10774;42.178;26.578;2022-12-18T06:31:13;23.90;;;18.08;;
21233;SDS011;10774;42.178;26.578;2022-12-18T06:33:38;20.35;;;17.35;;
21233;SDS011;10774;42.178;26.578;2022-12-18T06:36:08;22.73;;;19.15;;
21233;SDS011;10774;42.178;26.578;2022-12-18T06:38:37;19.33;;;14.63;;
21233;SDS011;10774;42.178;26.578;2022-12-18T06:41:11;16.55;;;13.50;;
21233;SDS011;10774;42.178;26.578;2022-12-18T06:43:38;14.65;;;13.05;;
21233;SDS011;10774;42.178;26.578;2022-12-18T06:46:04;13.13;;;11.73;;
21233;SDS011;10774;42.178;26.578;2022-12-18T06:48:30;18.23;;;16.27;;
21233;SDS011;10774;42.178;26.578;2022-12-18T06:50:55;20.02;;;17.70;;
21233;SDS011;10774;42.178;26.578;2022-12-18T06:53:21;32.63;;;25.95;;
21233;SDS011;10774;42.178;26.578;2022-12-18T06:55:47;24.52;;;18.77;;
21233;SDS011;10774;42.178;26.578;2022-12-18T06:58:12;17.52;;;14.95;;
21233;SDS011;10774;42.178;26.578;2022-12-18T07:00:37;14.48;;;11.88;;
21233;SDS011;10774;42.178;26.578;2022-12-18T07:03:03;14.88;;;12.35;;
21233;SDS011;10774;42.178;26.578;2022-12-18T07:05:28;14.43;;;12.60;;
21233;SDS011;10774;42.178;26.578;2022-12-18T07:07:54;18.67;;;13.77;;
21233;SDS011;10774;42.178;26.578;2022-12-18T07:10:19;14.00;;;11.18;;
21233;SDS011;10774;42.178;26.578;2022-12-18T07:12:45;9.65;;;8.48;;
21233;SDS011;10774;42.178;26.578;2022-12-18T07:15:11;7.80;;;6.22;;
21233;SDS011;10774;42.178;26.578;2022-12-18T07:17:37;5.72;;;4.13;;
21233;SDS011;10774;42.178;26.578;2022-12-18T07:20:02;11.55;;;8.57;;
21233;SDS011;10774;42.178;26.578;2022-12-18T07:22:28;19.48;;;16.00;;
21233;SDS011;10774;42.178;26.578;2022-12-18T07:24:53;21.05;;;15.43;;
21233;SDS011;10774;42.178;26.578;2022-12-18T07:27:20;15.38;;;10.65;;
21233;SDS011;10774;42.178;26.578;2022-12-18T07:29:46;11.68;;;9.60;;
21233;SDS011;10774;42.178;26.578;2022-12-18T07:32:11;20.95;;;14.68;;
21233;SDS011;10774;42.178;26.578;2022-12-18T07:34:37;24.60;;;16.42;;
21233;SDS011;10774;42.178;26.578;2022-12-18T07:37:02;23.00;;;15.15;;
21233;SDS011;10774;42.178;26.578;2022-12-18T07:39:28;17.25;;;12.77;;
21233;SDS011;10774;42.178;26.578;2022-12-18T07:41:53;24.88;;;12.50;;
21233;SDS011;10774;42.178;26.578;2022-12-18T07:44:37;24.52;;;15.35;;
21233;SDS011;10774;42.178;26.578;2022-12-18T07:47:03;25.38;;;19.60;;
21233;SDS011;10774;42.178;26.578;2022-12-18T07:49:28;22.08;;;16.52;;
21233;SDS011;10774;42.178;26.578;2022-12-18T07:51:56;16.92;;;14.65;;
21233;SDS011;10774;42.178;26.578;2022-12-18T07:54:23;15.82;;;13.07;;
21233;SDS011;10774;42.178;26.578;2022-12-18T07:56:49;16.75;;;12.88;;
21233;SDS011;10774;42.178;26.578;2022-12-18T07:59:15;22.67;;;16.05;;
21233;SDS011;10774;42.178;26.578;2022-12-18T08:01:41;20.17;;;13.95;;
21233;SDS011;10774;42.178;26.578;2022-12-18T08:04:06;20.65;;;16.45;;
21233;SDS011;10774;42.178;26.578;2022-12-18T08:06:31;25.92;;;18.40;;
21233;SDS011;10774;42.178;26.578;2022-12-18T08:08:57;22.63;;;16.75;;
21233;SDS011;10774;42.178;26.578;2022-12-18T08:11:23;26.85;;;17.60;;
21233;SDS011;10774;42.178;26.578;2022-12-18T08:13:50;31.42;;;23.75;;
21233;SDS011;10774;42.178;26.578;2022-12-18T08:16:16;21.98;;;19.15;;
21233;SDS011;10774;42.178;26.578;2022-12-18T08:18:42;15.98;;;12.32;;
21233;SDS011;10774;42.178;26.578;2022-12-18T08:21:11;23.55;;;17.25;;
21233;SDS011;10774;42.178;26.578;2022-12-18T08:23:38;15.60;;;11.05;;
21233;SDS011;10774;42.178;26.578;2022-12-18T08:26:04;25.25;;;15.13;;
21233;SDS011;10774;42.178;26.578;2022-12-18T08:28:30;19.30;;;13.48;;
21233;SDS011;10774;42.178;26.578;2022-12-18T08:30:55;10.93;;;8.68;;
21233;SDS011;10774;42.178;26.578;2022-12-18T08:33:21;9.85;;;7.13;;
21233;SDS011;10774;42.178;26.578;2022-12-18T08:35:46;13.63;;;10.45;;
21233;SDS011;10774;42.178;26.578;2022-12-18T08:38:11;10.55;;;8.50;;
21233;SDS011;10774;42.178;26.578;2022-12-18T08:40:37;15.73;;;10.43;;
21233;SDS011;10774;42.178;26.578;2022-12-18T08:43:02;14.27;;;10.20;;
21233;SDS011;10774;42.178;26.578;2022-12-18T08:45:47;14.43;;;9.63;;
21233;SDS011;10774;42.178;26.578;2022-12-18T08:48:12;11.13;;;7.00;;
21233;SDS011;10774;42.178;26.578;2022-12-18T08:50:37;9.57;;;6.00;;
21233;SDS011;10774;42.178;26.578;2022-12-18T08:53:03;10.65;;;6.70;;
21233;SDS011;10774;42.178;26.578;2022-12-18T08:55:29;11.00;;;8.35;;
21233;SDS011;10774;42.178;26.578;2022-12-18T08:57:54;13.38;;;9.88;;
21233;SDS011;10774;42.178;26.578;2022-12-18T09:00:20;16.25;;;11.40;;
21233;SDS011;10774;42.178;26.578;2022-12-18T09:02:45;15.63;;;10.00;;
21233;SDS011;10774;42.178;26.578;2022-12-18T09:05:11;16.77;;;10.65;;
21233;SDS011;10774;42.178;26.578;2022-12-18T09:07:36;13.82;;;8.45;;
21233;SDS011;10774;42.178;26.578;2022-12-18T09:10:02;13.55;;;9.32;;
21233;SDS011;10774;42.178;26.578;2022-12-18T09:12:27;14.43;;;9.98;;
21233;SDS011;10774;42.178;26.578;2022-12-18T09:14:53;18.88;;;11.77;;
21233;SDS011;10774;42.178;26.578;2022-12-18T09:17:18;18.05;;;12.82;;
21233;SDS011;10774;42.178;26.578;2022-12-18T09:19:44;16.63;;;12.77;;
21233;SDS011;10774;42.178;26.578;2022-12-18T09:22:09;15.27;;;11.43;;
21233;SDS011;10774;42.178;26.578;2022-12-18T09:24:35;16.85;;;10.20;;
21233;SDS011;10774;42.178;26.578;2022-12-18T09:27:00;14.38;;;9.63;;
21233;SDS011;10774;42.178;26.578;2022-12-18T09:29:25;17.33;;;12.77;;
21233;SDS011;10774;42.178;26.578;2022-12-18T09:31:51;26.45;;;15.48;;
21233;SDS011;10774;42.178;26.578;2022-12-18T09:34:16;17.83;;;12.55;;
21233;SDS011;10774;42.178;26.578;2022-12-18T09:36:42;19.20;;;14.30;;
21233;SDS011;10774;42.178;26.578;2022-12-18T09:39:08;18.90;;;15.52;;
21233;SDS011;10774;42.178;26.578;2022-12-18T09:49:24;22.73;;;13.77;;
21233;SDS011;10774;42.178;26.578;2022-12-18T09:51:55;19.77;;;11.60;;
21233;SDS011;10774;42.178;26.578;2022-12-18T09:54:35;16.10;;;10.70;;
21233;SDS011;10774;42.178;26.578;2022-12-18T09:57:06;20.27;;;13.27;;
21233;SDS011;10774;42.178;26.578;2022-12-18T09:59:36;16.65;;;11.10;;
21233;SDS011;10774;42.178;26.578;2022-12-18T10:02:23;16.63;;;12.73;;
21233;SDS011;10774;42.178;26.578;2022-12-18T10:05:06;19.38;;;14.32;;
21233;SDS011;10774;42.178;26.578;2022-12-18T10:13:32;18.40;;;13.63;;
21233;SDS011;10774;42.178;26.578;2022-12-18T10:16:18;15.63;;;13.13;;
21233;SDS011;10774;42.178;26.578;2022-12-18T10:21:43;15.18;;;12.00;;
21233;SDS011;10774;42.178;26.578;2022-12-18T10:27:12;20.17;;;15.85;;
21233;SDS011;10774;42.178;26.578;2022-12-18T10:29:40;24.38;;;16.33;;
21233;SDS011;10774;42.178;26.578;2022-12-18T10:32:09;21.48;;;14.02;;
21233;SDS011;10774;42.178;26.578;2022-12-18T10:34:40;23.10;;;17.15;;
21233;SDS011;10774;42.178;26.578;2022-12-18T10:37:06;23.27;;;16.30;;
21233;SDS011;10774;42.178;26.578;2022-12-18T10:39:39;26.00;;;17.65;;
21233;SDS011;10774;42.178;26.578;2022-12-18T10:42:15;24.38;;;16.08;;
21233;SDS011;10774;42.178;26.578;2022-12-18T10:44:43;20.55;;;14.15;;
21233;SDS011;10774;42.178;26.578;2022-12-18T10:47:14;21.77;;;14.93;;
21233;SDS011;10774;42.178;26.578;2022-12-18T10:49:50;33.42;;;24.10;;
21233;SDS011;10774;42.178;26.578;2022-12-18T10:52:23;27.70;;;19.33;;
21233;SDS011;10774;42.178;26.578;2022-12-18T10:55:01;32.88;;;22.88;;
21233;SDS011;10774;42.178;26.578;2022-12-18T10:59:57;25.52;;;19.10;;
21233;SDS011;10774;42.178;26.578;2022-12-18T11:02:33;29.55;;;20.88;;
21233;SDS011;10774;42.178;26.578;2022-12-18T11:05:01;26.55;;;19.27;;
21233;SDS011;10774;42.178;26.578;2022-12-18T11:07:40;33.45;;;23.67;;
21233;SDS011;10774;42.178;26.578;2022-12-18T11:10:17;33.83;;;21.05;;
21233;SDS011;10774;42.178;26.578;2022-12-18T11:12:46;38.05;;;24.55;;
21233;SDS011;10774;42.178;26.578;2022-12-18T11:15:16;29.80;;;20.77;;
21233;SDS011;10774;42.178;26.578;2022-12-18T11:17:47;35.35;;;25.17;;
21233;SDS011;10774;42.178;26.578;2022-12-18T11:20:27;28.42;;;20.65;;
21233;SDS011;10774;42.178;26.578;2022-12-18T11:25:29;27.45;;;19.95;;
21233;SDS011;10774;42.178;26.578;2022-12-18T11:27:59;17.15;;;13.15;;
21233;SDS011;10774;42.178;26.578;2022-12-18T11:35:47;23.38;;;16.48;;
21233;SDS011;10774;42.178;26.578;2022-12-18T11:38:31;17.65;;;14.85;;
21233;SDS011;10774;42.178;26.578;2022-12-18T11:44:22;19.80;;;13.82;;
21233;SDS011;10774;42.178;26.578;2022-12-18T11:46:55;18.95;;;12.23;;
21233;SDS011;10774;42.178;26.578;2022-12-18T11:49:26;18.90;;;13.65;;
21233;SDS011;10774;42.178;26.578;2022-12-18T11:52:00;16.63;;;12.55;;
21233;SDS011;10774;42.178;26.578;2022-12-18T11:54:30;18.63;;;13.77;;
21233;SDS011;10774;42.178;26.578;2022-12-18T11:56:57;25.88;;;17.08;;
21233;SDS011;10774;42.178;26.578;2022-12-18T12:10:11;29.52;;;22.25;;
21233;SDS011;10774;42.178;26.578;2022-12-18T12:20:50;28.83;;;18.67;;
21233;SDS011;10774;42.178;26.578;2022-12-18T12:26:24;28.05;;;19.83;;
21233;SDS011;10774;42.178;26.578;2022-12-18T12:34:15;33.80;;;24.00;;
21233;SDS011;10774;42.178;26.578;2022-12-18T12:39:32;47.35;;;30.08;;
21233;SDS011;10774;42.178;26.578;2022-12-18T12:42:03;32.13;;;21.75;;
21233;SDS011;10774;42.178;26.578;2022-12-18T12:44:54;26.00;;;20.17;;
21233;SDS011;10774;42.178;26.578;2022-12-18T12:47:32;25.55;;;18.92;;
21233;SDS011;10774;42.178;26.578;2022-12-18T12:50:04;32.17;;;22.95;;
21233;SDS011;10774;42.178;26.578;2022-12-18T12:52:42;26.10;;;19.15;;
21233;SDS011;10774;42.178;26.578;2022-12-18T12:55:24;29.23;;;21.10;;
21233;SDS011;10774;42.178;26.578;2022-12-18T13:00:29;31.25;;;22.35;;
21233;SDS011;10774;42.178;26.578;2022-12-18T13:08:22;30.90;;;22.23;;
21233;SDS011;10774;42.178;26.578;2022-12-18T13:10:51;25.88;;;18.52;;
21233;SDS011;10774;42.178;26.578;2022-12-18T13:13:51;29.75;;;23.40;;
21233;SDS011;10774;42.178;26.578;2022-12-18T13:16:19;32.42;;;22.50;;
21233;SDS011;10774;42.178;26.578;2022-12-18T13:18:53;29.83;;;21.63;;
21233;SDS011;10774;42.178;26.578;2022-12-18T13:23:52;32.63;;;25.10;;
21233;SDS011;10774;42.178;26.578;2022-12-18T13:36:48;30.77;;;22.10;;
21233;SDS011;10774;42.178;26.578;2022-12-18T13:41:40;31.85;;;24.80;;
21233;SDS011;10774;42.178;26.578;2022-12-18T13:44:11;27.55;;;20.02;;
21233;SDS011;10774;42.178;26.578;2022-12-18T13:51:43;39.88;;;28.55;;
21233;SDS011;10774;42.178;26.578;2022-12-18T13:56:58;31.98;;;22.02;;
21233;SDS011;10774;42.178;26.578;2022-12-18T13:59:25;31.20;;;21.95;;
21233;SDS011;10774;42.178;26.578;2022-12-18T14:01:59;34.78;;;23.30;;
21233;SDS011;10774;42.178;26.578;2022-12-18T14:04:31;31.58;;;22.60;;
21233;SDS011;10774;42.178;26.578;2022-12-18T14:07:04;31.98;;;21.60;;
21233;SDS011;10774;42.178;26.578;2022-12-18T14:09:36;33.33;;;22.35;;
21233;SDS011;10774;42.178;26.578;2022-12-18T14:12:06;32.10;;;23.60;;
21233;SDS011;10774;42.178;26.578;2022-12-18T14:14:55;28.02;;;21.63;;
21233;SDS011;10774;42.178;26.578;2022-12-18T14:17:21;31.80;;;21.27;;
21233;SDS011;10774;42.178;26.578;2022-12-18T14:19:48;30.67;;;22.73;;
21233;SDS011;10774;42.178;26.578;2022-12-18T14:22:23;34.33;;;24.33;;
21233;SDS011;10774;42.178;26.578;2022-12-18T14:30:35;35.05;;;25.98;;
21233;SDS011;10774;42.178;26.578;2022-12-18T14:33:10;40.00;;;27.77;;
21233;SDS011;10774;42.178;26.578;2022-12-18T14:35:43;37.25;;;25.92;;
21233;SDS011;10774;42.178;26.578;2022-12-18T14:38:28;40.92;;;28.88;;
21233;SDS011;10774;42.178;26.578;2022-12-18T14:43:35;36.75;;;23.55;;
21233;SDS011;10774;42.178;26.578;2022-12-18T14:46:03;34.55;;;22.35;;
21233;SDS011;10774;42.178;26.578;2022-12-18T14:48:58;37.33;;;27.75;;
21233;SDS011;10774;42.178;26.578;2022-12-18T14:51:27;38.08;;;25.63;;
21233;SDS011;10774;42.178;26.578;2022-12-18T14:53:56;42.35;;;29.13;;
21233;SDS011;10774;42.178;26.578;2022-12-18T14:56:30;39.63;;;26.58;;
21233;SDS011;10774;42.178;26.578;2022-12-18T14:59:04;38.92;;;28.23;;
21233;SDS011;10774;42.178;26.578;2022-12-18T15:01:39;44.30;;;30.15;;
21233;SDS011;10774;42.178;26.578;2022-12-18T15:04:25;46.45;;;31.67;;
21233;SDS011;10774;42.178;26.578;2022-12-18T15:07:06;38.78;;;28.05;;
21233;SDS011;10774;42.178;26.578;2022-12-18T15:13:05;33.72;;;25.35;;
21233;SDS011;10774;42.178;26.578;2022-12-18T15:17:59;38.28;;;26.27;;
21233;SDS011;10774;42.178;26.578;2022-12-18T15:20:27;40.58;;;28.27;;
21233;SDS011;10774;42.178;26.578;2022-12-18T15:22:59;39.45;;;26.35;;
21233;SDS011;10774;42.178;26.578;2022-12-18T15:25:32;41.17;;;28.20;;
21233;SDS011;10774;42.178;26.578;2022-12-18T15:28:01;35.58;;;24.45;;
21233;SDS011;10774;42.178;26.578;2022-12-18T15:30:27;41.75;;;27.05;;
21233;SDS011;10774;42.178;26.578;2022-12-18T15:33:15;34.78;;;24.48;;
21233;SDS011;10774;42.178;26.578;2022-12-18T15:35:47;43.03;;;27.88;;
21233;SDS011;10774;42.178;26.578;2022-12-18T15:38:21;39.97;;;26.52;;
21233;SDS011;10774;42.178;26.578;2022-12-18T15:40:49;39.15;;;25.58;;
21233;SDS011;10774;42.178;26.578;2022-12-18T15:43:15;33.47;;;23.27;;
21233;SDS011;10774;42.178;26.578;2022-12-18T15:45:58;41.38;;;28.15;;
21233;SDS011;10774;42.178;26.578;2022-12-18T15:48:41;35.97;;;25.27;;
21233;SDS011;10774;42.178;26.578;2022-12-18T15:51:50;36.30;;;26.20;;
21233;SDS011;10774;42.178;26.578;2022-12-18T15:54:03;38.28;;;26.63;;
21233;SDS011;10774;42.178;26.578;2022-12-18T15:56:34;39.17;;;28.45;;
21233;SDS011;10774;42.178;26.578;2022-12-18T15:59:19;45.80;;;31.67;;
21233;SDS011;10774;42.178;26.578;2022-12-18T16:01:46;51.25;;;34.65;;
21233;SDS011;10774;42.178;26.578;2022-12-18T16:04:14;39.92;;;26.50;;
21233;SDS011;10774;42.178;26.578;2022-12-18T16:06:41;37.83;;;27.58;;
21233;SDS011;10774;42.178;26.578;2022-12-18T16:09:07;37.80;;;26.45;;
21233;SDS011;10774;42.178;26.578;2022-12-18T16:11:34;38.08;;;28.35;;
21233;SDS011;10774;42.178;26.578;2022-12-18T16:14:15;36.78;;;26.73;;
21233;SDS011;10774;42.178;26.578;2022-12-18T16:16:53;34.50;;;25.42;;
21233;SDS011;10774;42.178;26.578;2022-12-18T16:19:21;40.20;;;29.92;;
21233;SDS011;10774;42.178;26.578;2022-12-18T16:21:47;41.72;;;31.23;;
21233;SDS011;10774;42.178;26.578;2022-12-18T16:24:18;37.95;;;27.55;;
21233;SDS011;10774;42.178;26.578;2022-12-18T16:26:47;41.05;;;28.33;;
21233;SDS011;10774;42.178;26.578;2022-12-18T16:29:13;35.90;;;27.45;;
21233;SDS011;10774;42.178;26.578;2022-12-18T16:31:39;38.47;;;27.65;;
21233;SDS011;10774;42.178;26.578;2022-12-18T16:34:14;37.97;;;26.13;;